Time;durP1;ratioP1;P1;durP2;ratioP2;P2;SDS_P1;SDS_P2;PMS_P1;PMS_P2;Temp;Humidity;BMP_temperature;BMP_pressure;BME280_temperature;BME280_humidity;BME280_pressure;Samples;Min_cycle;Max_cycle;Signal;HPM_P1;HPM_P2
2022/09/30 00:01:25;;;;;;;11.30;8.70;;;;;;;5.74;100.00;100728.19;5026189;28;20519;-79
2022/09/30 00:03:58;;;;;;;9.98;8.98;;;;;;;5.68;100.00;100736.38;5031068;28;20033;-79
2022/09/30 00:06:26;;;;;;;9.77;8.77;;;;;;;5.62;100.00;100742.78;5030301;28;20049;-79
2022/09/30 00:08:52;;;;;;;10.65;9.20;;;;;;;5.61;100.00;100741.94;5016078;28;20045;-79
2022/09/30 00:11:24;;;;;;;10.18;9.20;;;;;;;5.59;100.00;100745.53;5011170;28;20030;-79
2022/09/30 00:13:51;;;;;;;10.00;8.98;;;;;;;5.56;100.00;100746.53;5010831;28;20050;-79
2022/09/30 00:16:17;;;;;;;9.95;8.95;;;;;;;5.56;100.00;100754.38;5011224;28;20038;-79
2022/09/30 00:18:43;;;;;;;10.68;9.25;;;;;;;5.52;100.00;100749.41;5010801;28;20406;-79
2022/09/30 00:21:10;;;;;;;10.38;9.35;;;;;;;5.46;100.00;100747.97;5029608;28;20052;-81
2022/09/30 00:23:37;;;;;;;13.07;9.65;;;;;;;5.45;100.00;100750.66;5031366;28;20029;-81
2022/09/30 00:26:06;;;;;;;12.23;9.68;;;;;;;5.41;100.00;100750.00;5010887;28;20061;-82
2022/09/30 00:28:32;;;;;;;11.63;10.18;;;;;;;5.43;100.00;100750.75;5011338;28;20029;-81
2022/09/30 00:31:00;;;;;;;10.48;9.48;;;;;;;5.38;100.00;100755.38;5011202;28;20022;-81
2022/09/30 00:33:25;;;;;;;10.93;9.82;;;;;;;5.35;100.00;100742.50;5010378;28;20040;-81
2022/09/30 00:35:51;;;;;;;13.43;10.35;;;;;;;5.32;100.00;100745.28;5022780;28;20485;-81
2022/09/30 00:38:16;;;;;;;11.07;9.98;;;;;;;5.35;100.00;100750.34;5031020;28;20025;-81
2022/09/30 00:40:42;;;;;;;11.23;10.18;;;;;;;5.30;100.00;100747.13;5030980;28;20095;-83
2022/09/30 00:43:13;;;;;;;11.48;10.27;;;;;;;5.26;100.00;100749.06;5014831;28;20033;-83
2022/09/30 00:45:53;;;;;;;11.68;10.57;;;;;;;5.26;100.00;100743.00;5032327;28;20442;-83
2022/09/30 00:48:29;;;;;;;13.73;10.40;;;;;;;5.31;100.00;100746.22;5032632;28;20022;-83
2022/09/30 00:50:56;;;;;;;12.43;10.50;;;;;;;5.25;100.00;100746.53;5034039;28;20033;-83
2022/09/30 00:53:28;;;;;;;11.65;10.25;;;;;;;5.25;100.00;100741.31;5033550;28;20068;-83
2022/09/30 00:55:58;;;;;;;12.20;10.93;;;;;;;5.26;100.00;100746.47;5015437;28;20224;-83
2022/09/30 00:58:29;;;;;;;12.20;10.73;;;;;;;5.26;100.00;100740.41;5033122;28;20026;-83
2022/09/30 01:00:58;;;;;;;12.43;10.40;;;;;;;5.23;100.00;100745.78;5022228;28;20488;-83
2022/09/30 01:03:24;;;;;;;11.43;9.93;;;;;;;5.17;100.00;100751.28;4995286;28;20202;-83
2022/09/30 01:05:51;;;;;;;11.23;10.20;;;;;;;5.17;100.00;100752.13;5024017;28;20585;-83
2022/09/30 01:08:19;;;;;;;10.63;9.73;;;;;;;5.15;100.00;100747.94;5031110;28;20072;-83
2022/09/30 01:10:45;;;;;;;13.60;9.90;;;;;;;5.10;100.00;100747.34;5032596;28;20026;-83
2022/09/30 01:13:11;;;;;;;9.95;9.05;;;;;;;5.07;100.00;100744.88;5013901;28;20020;-83
2022/09/30 01:16:05;;;;;;;10.85;9.85;;;;;;;5.17;100.00;100746.09;5031164;28;20117;-84
2022/09/30 01:18:42;;;;;;;12.88;9.80;;;;;;;5.10;100.00;100744.72;5009478;28;20637;-83
2022/09/30 01:21:44;;;;;;;17.65;9.65;;;;;;;5.09;100.00;100743.03;5030477;28;20026;-83
2022/09/30 01:24:28;;;;;;;11.50;10.38;;;;;;;5.05;100.00;100750.19;5031575;28;20033;-83
2022/09/30 01:27:08;;;;;;;12.60;10.40;;;;;;;5.03;100.00;100749.44;5030641;28;20585;-83
2022/09/30 01:30:03;;;;;;;13.70;11.27;;;;;;;5.08;100.00;100752.63;5031013;28;20029;-81
2022/09/30 01:32:44;;;;;;;12.65;11.35;;;;;;;4.99;100.00;100756.56;5029480;28;20021;-81
2022/09/30 01:35:27;;;;;;;12.73;11.52;;;;;;;4.99;100.00;100743.53;5016698;28;20044;-81
2022/09/30 01:38:19;;;;;;;13.82;11.60;;;;;;;4.92;100.00;100741.34;5032040;28;20033;-81
2022/09/30 01:40:56;;;;;;;13.82;12.10;;;;;;;4.91;100.00;100748.31;5023741;28;20111;-81
2022/09/30 01:43:52;;;;;;;13.10;11.90;;;;;;;4.89;100.00;100757.13;5030980;28;20029;-81
2022/09/30 01:46:32;;;;;;;12.45;11.25;;;;;;;4.88;100.00;100756.28;5030880;28;20029;-80
2022/09/30 01:49:11;;;;;;;12.43;11.23;;;;;;;4.84;100.00;100757.38;5025517;28;20022;-81
2022/09/30 01:51:38;;;;;;;12.27;11.18;;;;;;;4.78;100.00;100757.66;5011645;28;20547;-81
2022/09/30 01:54:12;;;;;;;11.98;10.88;;;;;;;4.78;100.00;100747.25;5010546;28;20398;-80
2022/09/30 01:56:42;;;;;;;12.77;11.57;;;;;;;4.76;100.00;100746.47;5011771;28;20034;-81
2022/09/30 01:59:26;;;;;;;12.52;11.32;;;;;;;4.84;100.00;100749.56;5011632;28;20033;-81
2022/09/30 02:01:56;;;;;;;12.43;11.10;;;;;;;4.72;100.00;100756.22;4993964;28;20471;-80
2022/09/30 02:04:32;;;;;;;11.55;10.55;;;;;;;4.72;100.00;100757.97;5010460;28;20061;-81
2022/09/30 02:07:06;;;;;;;12.98;11.68;;;;;;;4.67;100.00;100762.59;5027292;28;20541;-83
2022/09/30 02:09:39;;;;;;;13.20;11.98;;;;;;;4.66;100.00;100746.13;4993186;28;20030;-83
2022/09/30 02:12:10;;;;;;;13.93;12.43;;;;;;;4.67;100.00;100762.59;5010086;28;20083;-83
2022/09/30 02:14:43;;;;;;;13.23;11.93;;;;;;;4.69;100.00;100761.59;5025006;28;20112;-83
2022/09/30 02:17:22;;;;;;;13.07;11.77;;;;;;;4.72;100.00;100753.63;5030780;28;20055;-83
2022/09/30 02:20:00;;;;;;;13.85;12.45;;;;;;;4.67;100.00;100758.22;5030310;28;20098;-83
2022/09/30 02:22:31;;;;;;;13.15;12.05;;;;;;;4.62;100.00;100759.38;5030551;28;20031;-83
2022/09/30 02:25:02;;;;;;;12.63;11.50;;;;;;;4.59;100.00;100754.31;5012428;28;20029;-83
2022/09/30 02:27:44;;;;;;;13.25;11.95;;;;;;;4.59;100.00;100759.53;5030170;28;20033;-83
2022/09/30 02:30:11;;;;;;;13.77;12.33;;;;;;;4.50;100.00;100766.06;5030797;28;20431;-83
2022/09/30 02:32:40;;;;;;;13.20;12.00;;;;;;;4.53;100.00;100760.69;5030101;28;20151;-83
2022/09/30 02:35:20;;;;;;;13.65;12.25;;;;;;;4.47;100.00;100763.63;5030622;28;20033;-83
2022/09/30 02:37:54;;;;;;;13.45;12.25;;;;;;;4.54;100.00;100751.13;5013325;28;20043;-83
2022/09/30 02:40:35;;;;;;;16.42;12.80;;;;;;;4.53;100.00;100754.66;5011737;28;20022;-83
2022/09/30 02:43:03;;;;;;;14.65;13.35;;;;;;;4.49;100.00;100747.91;5011012;28;20180;-83
2022/09/30 02:45:38;;;;;;;14.25;12.32;;;;;;;4.48;100.00;100757.47;5010890;28;20057;-83
2022/09/30 02:48:20;;;;;;;14.40;12.95;;;;;;;4.51;100.00;100759.09;5010000;28;20498;-83
2022/09/30 02:50:51;;;;;;;14.18;12.70;;;;;;;4.45;100.00;100756.78;4993766;28;20390;-83
2022/09/30 02:53:22;;;;;;;15.88;13.98;;;;;;;4.41;100.00;100756.09;5010239;28;20109;-83
2022/09/30 02:55:59;;;;;;;16.50;15.00;;;;;;;4.47;100.00;100765.38;5011197;28;20026;-83
2022/09/30 02:58:25;;;;;;;16.90;15.25;;;;;;;4.39;100.00;100750.94;5017188;28;20021;-83
2022/09/30 03:00:53;;;;;;;16.42;14.90;;;;;;;4.36;100.00;100753.69;5010716;28;20540;-83
2022/09/30 03:03:23;;;;;;;16.23;14.80;;;;;;;4.35;100.00;100752.03;5011212;28;20037;-83
2022/09/30 03:05:49;;;;;;;17.55;15.48;;;;;;;4.34;100.00;100755.53;5022604;28;20026;-83
2022/09/30 03:08:15;;;;;;;17.30;15.68;;;;;;;4.39;100.00;100756.16;5011526;28;20032;-83
2022/09/30 03:10:42;;;;;;;17.85;16.15;;;;;;;4.37;100.00;100759.75;5031634;28;20365;-83
2022/09/30 03:13:36;;;;;;;16.58;14.98;;;;;;;4.44;100.00;100766.38;5011493;28;20061;-83
2022/09/30 03:16:23;;;;;;;16.55;15.10;;;;;;;4.42;100.00;100767.38;5011792;28;20026;-83
2022/09/30 03:19:07;;;;;;;17.33;15.65;;;;;;;4.34;100.00;100765.97;5011867;28;20486;-83
2022/09/30 03:21:57;;;;;;;17.67;16.08;;;;;;;4.35;100.00;100767.66;5030265;28;20033;-83
2022/09/30 03:24:50;;;;;;;17.85;16.15;;;;;;;4.40;100.00;100768.28;5030766;28;20032;-83
2022/09/30 03:27:32;;;;;;;17.65;15.95;;;;;;;4.37;100.00;100770.16;5031255;28;20332;-81
2022/09/30 03:30:12;;;;;;;18.38;16.58;;;;;;;4.38;100.00;100772.69;5027370;28;20030;-81
2022/09/30 03:33:07;;;;;;;20.63;18.67;;;;;;;4.40;100.00;100776.09;5011925;28;20022;-81
2022/09/30 03:35:55;;;;;;;19.33;17.52;;;;;;;4.30;100.00;100767.03;5022708;28;20097;-80
2022/09/30 03:38:44;;;;;;;19.88;17.88;;;;;;;4.32;100.00;100775.63;5023727;28;20041;-81
2022/09/30 03:41:18;;;;;;;20.77;18.88;;;;;;;4.30;100.00;100774.00;4990588;28;20041;-81
2022/09/30 03:43:50;;;;;;;21.15;19.10;;;;;;;4.31;100.00;100776.53;5030733;28;20036;-81
2022/09/30 03:46:24;;;;;;;21.75;19.45;;;;;;;4.28;100.00;100775.84;5024083;28;20036;-81
2022/09/30 03:48:53;;;;;;;22.67;19.80;;;;;;;4.31;100.00;100786.09;5010362;28;20037;-81
2022/09/30 03:51:20;;;;;;;21.63;19.42;;;;;;;4.29;100.00;100786.19;5012920;28;20022;-81
2022/09/30 03:53:46;;;;;;;20.88;18.88;;;;;;;4.27;100.00;100785.41;5014127;28;20057;-81
2022/09/30 03:56:12;;;;;;;21.20;19.02;;;;;;;4.23;100.00;100788.25;5012979;28;20058;-81
2022/09/30 03:58:42;;;;;;;20.58;18.67;;;;;;;4.19;100.00;100792.75;5012562;28;20100;-81
2022/09/30 04:01:18;;;;;;;22.08;19.98;;;;;;;4.16;100.00;100795.53;5024985;28;20057;-81
2022/09/30 04:03:44;;;;;;;23.38;21.13;;;;;;;4.18;100.00;100796.28;5029054;28;20025;-81
2022/09/30 04:06:12;;;;;;;22.80;20.58;;;;;;;4.14;100.00;100806.94;5029679;28;20025;-80
2022/09/30 04:08:38;;;;;;;22.52;20.42;;;;;;;4.16;100.00;100803.31;5034434;28;20109;-81
2022/09/30 04:11:04;;;;;;;23.38;21.02;;;;;;;4.17;100.00;100805.00;5032534;28;20057;-81
2022/09/30 04:13:30;;;;;;;23.13;20.80;;;;;;;4.13;100.00;100820.88;5033827;28;20060;-81
2022/09/30 04:15:58;;;;;;;22.60;20.50;;;;;;;4.14;100.00;100818.19;5033263;28;20037;-79
2022/09/30 04:18:24;;;;;;;23.63;21.23;;;;;;;4.15;100.00;100825.06;5031937;28;20573;-81
2022/09/30 04:20:49;;;;;;;22.58;20.50;;;;;;;4.11;100.00;100826.16;5032050;28;20027;-83
2022/09/30 04:23:14;;;;;;;22.90;20.75;;;;;;;4.13;100.00;100833.88;5020649;28;20026;-83
2022/09/30 04:25:40;;;;;;;23.40;21.05;;;;;;;4.13;100.00;100834.72;5023362;28;20033;-83
2022/09/30 04:28:05;;;;;;;23.30;20.95;;;;;;;4.05;100.00;100849.88;5031093;28;20036;-81
2022/09/30 04:30:30;;;;;;;22.90;20.67;;;;;;;4.04;100.00;100846.41;5031362;28;20032;-81
2022/09/30 04:32:56;;;;;;;23.15;20.65;;;;;;;4.00;100.00;100844.00;5030490;28;20131;-81
2022/09/30 04:35:22;;;;;;;22.55;20.17;;;;;;;4.00;100.00;100839.66;5031200;28;20041;-81
2022/09/30 04:37:47;;;;;;;23.80;21.52;;;;;;;4.06;100.00;100841.13;5031959;28;20147;-81
2022/09/30 04:40:15;;;;;;;22.73;20.73;;;;;;;4.05;100.00;100847.25;5030070;28;20116;-81
2022/09/30 04:42:41;;;;;;;24.38;22.08;;;;;;;4.04;100.00;100846.41;5011703;28;20032;-81
2022/09/30 04:45:11;;;;;;;23.75;21.65;;;;;;;4.02;100.00;100847.41;5011391;28;20026;-81
2022/09/30 04:47:37;;;;;;;25.77;23.00;;;;;;;4.15;100.00;100847.66;5010651;28;20026;-81
2022/09/30 04:50:04;;;;;;;26.42;24.02;;;;;;;4.16;100.00;100845.00;5011396;28;20033;-81
2022/09/30 04:52:29;;;;;;;25.90;23.30;;;;;;;4.26;100.00;100851.44;5011433;28;20034;-81
2022/09/30 04:54:57;;;;;;;26.48;23.67;;;;;;;4.19;100.00;100860.47;4995740;28;20059;-81
2022/09/30 04:57:22;;;;;;;25.27;22.88;;;;;;;4.11;100.00;100857.38;5012316;28;20025;-81
2022/09/30 04:59:49;;;;;;;23.48;21.27;;;;;;;4.10;100.00;100858.31;5022411;28;20353;-81
2022/09/30 05:02:15;;;;;;;24.40;21.50;;;;;;;4.09;100.00;100859.22;5027997;28;20499;-81
2022/09/30 05:04:41;;;;;;;24.27;22.13;;;;;;;4.14;100.00;100867.66;5030718;28;20440;-81
2022/09/30 05:07:07;;;;;;;24.40;22.17;;;;;;;4.10;100.00;100866.13;5029369;28;20029;-81
2022/09/30 05:09:34;;;;;;;28.52;22.95;;;;;;;4.08;100.00;100868.78;5030482;28;20030;-81
2022/09/30 05:12:01;;;;;;;24.70;22.05;;;;;;;4.10;100.00;100871.31;5030204;28;20134;-81
2022/09/30 05:14:27;;;;;;;23.25;21.05;;;;;;;4.12;100.00;100874.69;5028539;28;20474;-81
2022/09/30 05:16:52;;;;;;;23.05;20.95;;;;;;;4.02;100.00;100876.88;5015200;28;20144;-80
2022/09/30 05:19:18;;;;;;;23.65;21.42;;;;;;;4.02;100.00;100874.28;5012762;28;20092;-80
2022/09/30 05:21:43;;;;;;;23.35;21.13;;;;;;;3.98;100.00;100874.47;5029772;28;20474;-81
2022/09/30 05:24:12;;;;;;;22.08;19.90;;;;;;;3.99;100.00;100876.16;5029944;28;20025;-80
2022/09/30 05:26:39;;;;;;;24.33;21.60;;;;;;;4.02;100.00;100876.03;5030432;28;20021;-80
2022/09/30 05:29:05;;;;;;;25.30;22.67;;;;;;;4.01;100.00;100876.97;5029369;28;20088;-81
2022/09/30 05:31:30;;;;;;;25.25;22.75;;;;;;;4.12;100.00;100873.84;5027447;28;20034;-83
2022/09/30 05:33:56;;;;;;;26.02;23.33;;;;;;;4.15;100.00;100877.16;5008937;28;20048;-81
2022/09/30 05:36:21;;;;;;;25.98;23.38;;;;;;;4.20;100.00;100882.97;5029553;28;20040;-81
2022/09/30 05:38:50;;;;;;;25.17;22.45;;;;;;;4.12;100.00;100887.72;5030155;28;20071;-81
2022/09/30 05:41:18;;;;;;;24.20;21.73;;;;;;;4.14;100.00;100888.47;5029695;28;20033;-81
2022/09/30 05:43:44;;;;;;;24.42;22.02;;;;;;;4.07;100.00;100897.50;5029512;28;20041;-83
2022/09/30 05:46:09;;;;;;;24.02;21.48;;;;;;;4.09;100.00;100903.47;5029606;28;20025;-81
2022/09/30 05:48:35;;;;;;;24.27;21.80;;;;;;;4.04;100.00;100902.84;5029416;28;20022;-81
2022/09/30 05:51:01;;;;;;;23.95;21.67;;;;;;;4.12;100.00;100916.34;5009716;28;20651;-81
2022/09/30 05:53:28;;;;;;;23.42;21.05;;;;;;;4.06;100.00;100916.63;5016010;28;20585;-81
2022/09/30 05:55:53;;;;;;;22.48;20.27;;;;;;;4.07;100.00;100915.72;5030140;28;20025;-81
2022/09/30 05:58:20;;;;;;;23.67;21.38;;;;;;;4.04;100.00;100918.47;5028281;28;20035;-81
2022/09/30 06:00:46;;;;;;;24.90;22.50;;;;;;;4.08;100.00;100926.06;5029815;28;20029;-82
2022/09/30 06:03:13;;;;;;;24.92;22.25;;;;;;;4.06;100.00;100920.09;5027998;28;20031;-82
2022/09/30 06:05:38;;;;;;;24.63;22.33;;;;;;;4.10;100.00;100928.59;5023463;28;20034;-81
2022/09/30 06:08:05;;;;;;;23.27;20.88;;;;;;;4.11;100.00;100929.44;5009345;28;20034;-81
2022/09/30 06:10:31;;;;;;;23.30;20.80;;;;;;;4.16;100.00;100935.28;5009009;28;20058;-81
2022/09/30 06:12:58;;;;;;;24.80;22.50;;;;;;;4.20;100.00;100935.06;5008834;28;20447;-82
2022/09/30 06:15:24;;;;;;;24.20;21.92;;;;;;;4.21;100.00;100934.16;5009957;28;20034;-82
2022/09/30 06:17:53;;;;;;;26.58;23.90;;;;;;;4.26;100.00;100939.97;5009130;28;20065;-82
2022/09/30 06:20:18;;;;;;;26.83;24.30;;;;;;;4.32;100.00;100944.91;5002710;28;20429;-81
2022/09/30 06:22:44;;;;;;;26.48;23.73;;;;;;;4.29;100.00;100950.25;5019251;28;20060;-81
2022/09/30 06:25:13;;;;;;;28.48;23.92;;;;;;;4.40;100.00;100948.03;5020358;28;20033;-80
2022/09/30 06:27:38;;;;;;;26.30;23.88;;;;;;;4.41;100.00;100954.06;5011649;28;20029;-80
2022/09/30 06:30:05;;;;;;;29.20;24.48;;;;;;;4.43;100.00;100961.81;5029224;28;20154;-82
2022/09/30 06:32:30;;;;;;;26.67;24.00;;;;;;;4.52;100.00;100956.16;5028805;28;20167;-80
2022/09/30 06:34:56;;;;;;;26.98;24.35;;;;;;;4.57;100.00;100948.97;5025801;28;20112;-80
2022/09/30 06:37:22;;;;;;;28.70;25.90;;;;;;;4.63;100.00;100952.13;5028547;28;20079;-80
2022/09/30 06:39:49;;;;;;;29.85;26.85;;;;;;;4.72;100.00;100948.22;5028616;28;20389;-80
2022/09/30 06:42:14;;;;;;;32.25;29.05;;;;;;;4.80;100.00;100940.88;5028275;28;20029;-81
2022/09/30 06:44:40;;;;;;;31.08;27.77;;;;;;;4.88;100.00;100938.78;5028924;28;20041;-80
2022/09/30 06:47:06;;;;;;;31.95;28.63;;;;;;;4.93;100.00;100936.78;5027668;28;20037;-80
2022/09/30 06:49:31;;;;;;;32.55;29.15;;;;;;;5.01;100.00;100942.47;5028768;28;20036;-80
2022/09/30 06:51:59;;;;;;;33.40;28.88;;;;;;;5.10;100.00;100943.75;5028661;28;20104;-80
2022/09/30 06:54:27;;;;;;;35.28;30.60;;;;;;;5.21;100.00;100935.41;5028353;28;20396;-79
2022/09/30 06:56:54;;;;;;;34.22;30.25;;;;;;;5.27;100.00;100945.53;5028578;28;20436;-80
2022/09/30 06:59:19;;;;;;;36.80;31.52;;;;;;;5.46;100.00;100937.59;5010513;28;20022;-79
2022/09/30 07:01:45;;;;;;;36.35;32.45;;;;;;;5.57;100.00;100936.13;5028369;28;20079;-80
2022/09/30 07:04:11;;;;;;;35.72;31.80;;;;;;;5.72;100.00;100942.34;5028327;28;20080;-79
2022/09/30 07:06:37;;;;;;;37.00;32.92;;;;;;;5.81;100.00;100943.63;5028656;28;20036;-79
2022/09/30 07:09:04;;;;;;;35.17;31.13;;;;;;;5.93;100.00;100950.81;5028948;28;20036;-79
2022/09/30 07:11:29;;;;;;;35.78;30.38;;;;;;;6.03;100.00;100949.44;5028981;28;20170;-79
2022/09/30 07:13:58;;;;;;;37.42;32.13;;;;;;;6.14;100.00;100947.09;5028943;28;20033;-79
2022/09/30 07:16:24;;;;;;;38.75;32.30;;;;;;;6.24;100.00;100945.66;5029038;28;20385;-82
2022/09/30 07:18:50;;;;;;;36.13;32.22;;;;;;;6.37;100.00;100934.53;5027978;28;20025;-79
2022/09/30 07:21:16;;;;;;;39.10;33.13;;;;;;;6.47;100.00;100935.72;5022375;28;20398;-79
2022/09/30 07:23:46;;;;;;;37.42;33.17;;;;;;;6.58;100.00;100946.41;5027539;28;20037;-79
2022/09/30 07:26:13;;;;;;;39.47;32.92;;;;;;;6.68;100.00;100946.75;5013971;28;20028;-79
2022/09/30 07:28:39;;;;;;;34.28;30.67;;;;;;;6.75;100.00;100943.69;5031920;28;20494;-80
2022/09/30 07:31:17;;;;;;;36.58;31.15;;;;;;;6.85;100.00;100952.72;5032354;28;20089;-79
2022/09/30 07:33:43;;;;;;;35.58;31.77;;;;;;;7.04;100.00;100956.88;5033061;28;20397;-80
2022/09/30 07:36:10;;;;;;;36.00;31.48;;;;;;;7.16;100.00;100961.41;5032133;28;20092;-80
2022/09/30 07:38:39;;;;;;;34.78;31.08;;;;;;;7.27;100.00;100956.41;5015122;28;20163;-80
2022/09/30 07:41:08;;;;;;;33.67;30.23;;;;;;;7.35;100.00;100958.56;5032271;28;20022;-81
2022/09/30 07:43:37;;;;;;;36.42;30.27;;;;;;;7.42;100.00;100960.72;5032217;28;20481;-81
2022/09/30 07:46:13;;;;;;;34.47;30.08;;;;;;;7.47;100.00;100970.94;5032687;28;20052;-80
2022/09/30 07:48:47;;;;;;;33.28;28.67;;;;;;;7.58;100.00;100967.66;5014931;28;20033;-79
2022/09/30 07:51:40;;;;;;;33.67;30.15;;;;;;;7.73;100.00;100951.06;5032135;28;20032;-79
2022/09/30 07:54:12;;;;;;;33.00;29.60;;;;;;;7.82;100.00;100945.25;5028012;28;20493;-79
2022/09/30 07:56:38;;;;;;;34.42;30.85;;;;;;;7.94;100.00;100954.97;5031405;28;20382;-78
2022/09/30 07:59:04;;;;;;;33.22;29.73;;;;;;;8.05;100.00;100939.47;5030472;28;20392;-79
2022/09/30 08:01:31;;;;;;;32.35;28.70;;;;;;;8.15;100.00;100942.34;5032200;28;20025;-79
2022/09/30 08:03:59;;;;;;;31.42;28.30;;;;;;;8.27;100.00;100952.06;5031410;28;20464;-79
2022/09/30 08:06:26;;;;;;;32.05;27.50;;;;;;;8.46;100.00;100946.53;5032390;28;20152;-80
2022/09/30 08:08:53;;;;;;;31.08;27.85;;;;;;;8.59;100.00;100939.56;5032437;28;20474;-80
2022/09/30 08:11:19;;;;;;;29.38;26.25;;;;;;;8.70;100.00;100942.31;5030999;28;20052;-79
2022/09/30 08:13:52;;;;;;;29.88;26.88;;;;;;;8.80;100.00;100942.56;5027050;28;20025;-79
2022/09/30 08:16:19;;;;;;;29.30;26.40;;;;;;;8.92;100.00;100951.44;5001308;28;20045;-80
2022/09/30 08:18:44;;;;;;;30.05;26.95;;;;;;;9.02;100.00;100950.72;5027380;28;20033;-81
2022/09/30 08:21:10;;;;;;;31.10;27.85;;;;;;;9.10;100.00;100947.59;5031369;28;20036;-81
2022/09/30 08:23:35;;;;;;;30.02;27.08;;;;;;;9.23;100.00;100948.50;5013920;28;20133;-80
2022/09/30 08:26:08;;;;;;;30.75;27.65;;;;;;;9.38;100.00;100952.69;5030646;28;20040;-81
2022/09/30 08:28:34;;;;;;;;;;;;;;;9.54;100.00;100955.13;5032408;28;20425;-80
2022/09/30 08:31:08;;;;;;;31.17;27.98;;;;;;;9.66;100.00;100949.06;5031086;28;20055;-81
2022/09/30 08:33:37;;;;;;;30.55;27.45;;;;;;;9.76;100.00;100951.88;5031767;28;20029;-82
2022/09/30 08:36:04;;;;;;;29.42;26.42;;;;;;;9.90;100.00;100949.13;5031128;28;20025;-81
2022/09/30 08:38:30;;;;;;;29.83;26.63;;;;;;;10.10;100.00;100939.03;5031080;28;20022;-83
2022/09/30 08:41:07;;;;;;;28.83;25.83;;;;;;;10.25;100.00;100943.22;5014151;28;20040;-92
2022/09/30 08:43:55;;;;;;;28.88;25.80;;;;;;;10.46;100.00;100941.72;5031741;28;20038;-82
2022/09/30 08:46:24;;;;;;;28.73;25.40;;;;;;;10.67;99.68;100942.75;5012891;28;20022;-83
2022/09/30 08:49:20;;;;;;;26.63;23.60;;;;;;;10.84;99.05;100941.56;5030484;28;20033;-83
2022/09/30 08:51:49;;;;;;;23.15;20.85;;;;;;;11.00;98.05;100951.78;5026646;28;20033;-83
2022/09/30 08:54:20;;;;;;;22.58;20.50;;;;;;;11.16;97.12;100957.56;5012406;28;20477;-82
2022/09/30 08:56:46;;;;;;;22.15;20.08;;;;;;;11.38;97.45;100962.09;5030791;28;20029;-84
2022/09/30 08:59:26;;;;;;;23.00;20.85;;;;;;;11.55;96.78;100952.88;5030072;28;20028;-83
2022/09/30 09:01:59;;;;;;;22.02;19.92;;;;;;;11.83;96.25;100951.66;5013094;28;20021;-84
2022/09/30 09:04:25;;;;;;;20.08;18.17;;;;;;;12.04;95.24;100955.28;5029965;28;20061;-81
2022/09/30 09:07:12;;;;;;;19.05;17.08;;;;;;;12.22;94.18;100942.41;5011432;28;20116;-80
2022/09/30 09:10:12;;;;;;;18.70;16.90;;;;;;;12.38;93.51;100936.75;5029820;28;20040;-81
2022/09/30 09:12:54;;;;;;;18.35;16.45;;;;;;;12.58;92.60;100938.63;5030905;28;20029;-80
2022/09/30 09:15:23;;;;;;;17.80;16.10;;;;;;;12.64;90.85;100953.97;5029666;28;20083;-80
2022/09/30 09:18:17;;;;;;;17.75;15.93;;;;;;;12.83;91.27;100948.06;5030532;28;20121;-80
2022/09/30 09:21:22;;;;;;;17.65;15.70;;;;;;;12.97;92.19;100945.09;5030026;28;20393;-80
2022/09/30 09:23:55;;;;;;;17.13;15.43;;;;;;;13.09;90.46;100949.38;5029272;28;20056;-82
2022/09/30 09:26:23;;;;;;;14.57;13.18;;;;;;;13.31;88.79;100947.63;5011708;28;20033;-79
2022/09/30 09:29:07;;;;;;;16.30;14.60;;;;;;;13.40;88.08;100942.41;5012120;28;20036;-79
2022/09/30 09:31:32;;;;;;;13.73;12.38;;;;;;;13.42;87.74;100950.19;5028664;28;20049;-81
2022/09/30 09:34:08;;;;;;;17.00;14.45;;;;;;;13.50;88.38;100955.69;5029108;28;20059;-80
2022/09/30 09:36:41;;;;;;;14.93;13.43;;;;;;;13.68;85.78;100956.78;5012056;28;20444;-78
2022/09/30 09:39:15;;;;;;;17.10;13.55;;;;;;;13.87;86.10;100955.19;5029566;28;20515;-78
2022/09/30 09:41:50;;;;;;;14.05;12.65;;;;;;;13.97;86.32;100956.06;5012352;28;20152;-78
2022/09/30 09:44:40;;;;;;;12.95;11.65;;;;;;;14.09;85.39;100949.72;5030088;28;20039;-79
2022/09/30 09:47:15;;;;;;;12.90;11.60;;;;;;;14.32;83.16;100948.53;5011676;28;20057;-78
2022/09/30 09:49:57;;;;;;;12.98;11.68;;;;;;;14.50;81.06;100938.19;5029811;28;20412;-78
2022/09/30 09:52:34;;;;;;;12.23;11.02;;;;;;;14.57;82.25;100943.75;5029772;28;20021;-78
2022/09/30 09:55:00;;;;;;;12.40;11.20;;;;;;;14.75;81.20;100936.81;5029771;28;20091;-79
2022/09/30 09:57:31;;;;;;;12.82;10.35;;;;;;;14.80;81.46;100931.09;5029204;28;20021;-79
2022/09/30 10:03:20;;;;;;;10.80;9.45;;;;;;;15.01;81.20;100945.06;5029180;28;20044;-80
2022/09/30 10:06:00;;;;;;;9.90;9.00;;;;;;;14.99;79.37;100942.53;5028246;28;20053;-79
2022/09/30 10:08:25;;;;;;;9.68;8.70;;;;;;;15.01;78.80;100937.94;5011664;28;20083;-79
2022/09/30 10:10:58;;;;;;;9.35;8.45;;;;;;;15.03;79.43;100945.75;5028494;28;20029;-80
2022/09/30 10:13:37;;;;;;;9.93;8.25;;;;;;;15.19;78.90;100934.56;5033877;28;20037;-79
2022/09/30 10:16:03;;;;;;;11.05;8.15;;;;;;;15.18;76.56;100932.91;5029009;28;20033;-78
2022/09/30 10:18:32;;;;;;;7.50;6.70;;;;;;;15.32;76.88;100945.75;5013406;28;20037;-79
2022/09/30 10:21:03;;;;;;;8.45;6.88;;;;;;;15.33;75.07;100944.75;5009524;28;20498;-79
2022/09/30 10:23:36;;;;;;;9.13;7.35;;;;;;;15.34;77.13;100944.63;5008103;28;20805;-79
2022/09/30 10:26:14;;;;;;;8.13;6.90;;;;;;;15.49;77.64;100949.47;5009804;28;20022;-79
2022/09/30 10:28:51;;;;;;;7.57;6.88;;;;;;;15.68;75.34;100943.34;5009466;28;20030;-79
2022/09/30 10:31:27;;;;;;;6.18;5.57;;;;;;;15.78;74.31;100938.81;5008803;28;20149;-80
2022/09/30 10:34:08;;;;;;;6.38;5.78;;;;;;;15.83;73.31;100949.84;5009789;28;20033;-79
2022/09/30 10:36:36;;;;;;;6.05;5.55;;;;;;;15.71;69.43;100951.00;5009358;28;20116;-78
2022/09/30 10:39:06;;;;;;;7.15;6.22;;;;;;;15.80;72.23;100952.78;4990561;28;20056;-79
2022/09/30 10:41:34;;;;;;;8.00;5.72;;;;;;;15.86;71.61;100950.38;5009503;28;20128;-80
2022/09/30 10:44:02;;;;;;;5.93;5.22;;;;;;;15.87;70.95;100952.06;5008338;28;20115;-79
2022/09/30 10:46:32;;;;;;;4.20;3.60;;;;;;;15.92;67.88;100941.00;5008819;28;20022;-79
2022/09/30 10:48:59;;;;;;;5.43;4.35;;;;;;;15.85;69.25;100947.88;5009390;28;20101;-78
2022/09/30 10:51:32;;;;;;;6.70;4.07;;;;;;;15.92;70.00;100944.47;4995581;28;20026;-79
2022/09/30 10:53:58;;;;;;;4.88;3.90;;;;;;;16.02;68.20;100948.94;4990868;28;20025;-78
2022/09/30 10:56:45;;;;;;;4.80;4.30;;;;;;;16.15;71.32;100944.97;5009550;28;20211;-79
2022/09/30 10:59:29;;;;;;;3.20;2.90;;;;;;;16.26;68.84;100936.78;5011031;28;20093;-79
2022/09/30 11:02:36;;;;;;;3.33;2.80;;;;;;;16.10;68.97;100947.22;5003451;28;20428;-79
2022/09/30 11:05:18;;;;;;;4.97;3.20;;;;;;;15.81;68.54;100946.50;5013047;28;20120;-79
2022/09/30 11:07:58;;;;;;;3.83;2.90;;;;;;;15.80;67.94;100940.34;4995109;28;20053;-80
2022/09/30 11:10:42;;;;;;;4.60;3.35;;;;;;;15.90;66.39;100935.00;4992462;28;20172;-79
2022/09/30 11:13:53;;;;;;;5.15;3.90;;;;;;;16.13;69.83;100932.81;5005402;28;20034;-80
2022/09/30 11:16:43;;;;;;;4.57;3.85;;;;;;;16.27;68.65;100927.84;4924389;29;20039;-79
2022/09/30 11:19:21;;;;;;;4.75;3.92;;;;;;;16.39;65.58;100928.47;4999680;28;20048;-80
2022/09/30 11:22:17;;;;;;;4.28;3.80;;;;;;;16.44;67.75;100928.88;5012707;28;20068;-79
2022/09/30 11:24:46;;;;;;;3.88;3.45;;;;;;;16.41;66.06;100929.19;5003886;28;20026;-79
2022/09/30 11:27:48;;;;;;;4.63;4.18;;;;;;;16.37;67.15;100933.09;5008431;28;20030;-80
2022/09/30 11:30:27;;;;;;;5.72;3.70;;;;;;;16.41;66.55;100923.00;4996358;28;20041;-80
2022/09/30 11:33:04;;;;;;;5.03;3.55;;;;;;;16.57;66.70;100923.19;4996129;28;20022;-79
2022/09/30 11:35:42;;;;;;;6.43;3.10;;;;;;;16.75;66.09;100916.09;4993525;28;20092;-80
2022/09/30 11:38:42;;;;;;;5.13;3.22;;;;;;;16.98;66.87;100918.31;4992753;28;20117;-80